createdAt,value
2016-09-28T00:00:21.455Z,0
2016-09-28T00:01:21.940Z,0
2016-09-28T00:02:22.450Z,0
2016-09-28T00:03:22.961Z,0
2016-09-28T00:04:23.473Z,0
2016-09-28T00:05:23.992Z,0
2016-09-28T00:06:24.497Z,0
2016-09-28T00:07:25.187Z,0
2016-09-28T00:08:25.677Z,0
2016-09-28T00:09:26.183Z,0
2016-09-28T00:10:26.993Z,0
2016-09-28T00:11:27.057Z,0
2016-09-28T00:12:27.566Z,0
2016-09-28T00:13:29.734Z,0
2016-09-28T00:14:28.605Z,0
2016-09-28T00:15:29.143Z,0
2016-09-28T00:16:29.618Z,0
2016-09-28T00:17:30.131Z,0
2016-09-28T00:18:30.669Z,0
2016-09-28T00:19:31.163Z,0
2016-09-28T00:20:31.678Z,0
2016-09-28T00:21:32.198Z,0
2016-09-28T00:22:32.718Z,0
2016-09-28T00:23:33.237Z,0
2016-09-28T00:24:33.741Z,0
2016-09-28T00:25:34.402Z,0
2016-09-28T00:26:34.764Z,0
2016-09-28T00:27:35.274Z,0
2016-09-28T00:28:35.788Z,0
2016-09-28T00:29:36.294Z,0
2016-09-28T00:30:36.814Z,0
2016-09-28T00:31:37.468Z,0
2016-09-28T00:32:37.834Z,0
2016-09-28T00:33:38.345Z,0
2016-09-28T00:34:38.856Z,0
2016-09-28T00:35:39.517Z,0
2016-09-28T00:36:39.881Z,0
2016-09-28T00:37:40.395Z,0
2016-09-28T00:38:40.902Z,0
2016-09-28T00:39:41.414Z,0
2016-09-28T00:40:41.924Z,0
2016-09-28T00:41:42.434Z,0
2016-09-28T00:42:42.953Z,0
2016-09-28T00:43:43.467Z,0
2016-09-28T00:44:44.119Z,0
2016-09-28T00:45:44.633Z,0
2016-09-28T00:46:44.993Z,0
2016-09-28T00:47:45.507Z,0
2016-09-28T00:48:46.020Z,0
2016-09-28T00:49:46.533Z,0
2016-09-28T00:50:47.044Z,0
2016-09-28T00:51:47.709Z,0
2016-09-28T00:52:48.065Z,0
2016-09-28T00:53:48.731Z,0
2016-09-28T00:54:49.088Z,0
2016-09-28T00:55:49.603Z,0
2016-09-28T00:56:50.110Z,0
2016-09-28T00:57:50.628Z,0
2016-09-28T00:58:51.146Z,0
2016-09-28T00:59:51.667Z,0
2016-09-28T01:00:53.677Z,0
2016-09-28T01:01:52.695Z,0
2016-09-28T01:02:53.222Z,0
2016-09-28T01:03:53.856Z,0
2016-09-28T01:04:54.218Z,0
2016-09-28T01:05:54.732Z,0
2016-09-28T01:06:55.244Z,0
2016-09-28T01:07:55.754Z,0
2016-09-28T01:08:56.262Z,0
2016-09-28T01:09:56.810Z,0
2016-09-28T01:10:57.451Z,0
2016-09-28T01:11:57.804Z,0
2016-09-28T01:12:58.345Z,0
2016-09-28T01:13:58.828Z,0
2016-09-28T01:14:59.349Z,0
2016-09-28T01:15:59.859Z,0
2016-09-28T01:17:00.366Z,0
2016-09-28T01:18:01.030Z,0
2016-09-28T01:19:01.390Z,0
2016-09-28T01:20:01.905Z,0
2016-09-28T01:21:02.409Z,0
2016-09-28T01:22:02.922Z,0
2016-09-28T01:23:03.432Z,0
2016-09-28T01:24:04.094Z,0
2016-09-28T01:25:04.451Z,0
2016-09-28T01:26:04.981Z,0
2016-09-28T01:27:05.494Z,0
2016-09-28T01:28:06.163Z,0
2016-09-28T01:29:06.509Z,0
2016-09-28T01:30:07.014Z,0
2016-09-28T01:31:09.314Z,0
2016-09-28T01:32:08.175Z,0
2016-09-28T01:33:08.688Z,0
2016-09-28T01:34:09.052Z,0
2016-09-28T01:35:09.568Z,0
2016-09-28T01:36:10.083Z,0
2016-09-28T01:37:10.762Z,0
2016-09-28T01:38:11.144Z,0
2016-09-28T01:39:11.637Z,0
2016-09-28T01:40:12.147Z,0
2016-09-28T01:41:12.663Z,0
2016-09-28T01:42:13.183Z,0
2016-09-28T01:43:13.836Z,0
2016-09-28T01:44:14.349Z,0
2016-09-28T01:45:14.709Z,0
2016-09-28T01:46:15.220Z,0
2016-09-28T01:47:15.730Z,0
2016-09-28T01:48:16.388Z,0
2016-09-28T01:49:16.748Z,0
2016-09-28T01:50:17.259Z,0
2016-09-28T01:51:17.776Z,0
2016-09-28T01:52:18.441Z,0
2016-09-28T01:53:18.797Z,0
2016-09-28T01:54:19.327Z,0
2016-09-28T01:55:19.815Z,0
2016-09-28T01:56:20.329Z,0
2016-09-28T01:57:21.137Z,0
2016-09-28T01:58:21.371Z,0
2016-09-28T01:59:21.862Z,0
2016-09-28T02:00:22.375Z,0
2016-09-28T02:01:22.882Z,0
2016-09-28T02:02:23.396Z,0
2016-09-28T02:03:24.206Z,0
2016-09-28T02:04:24.420Z,0
2016-09-28T02:05:25.092Z,0
2016-09-28T02:06:25.591Z,0
2016-09-28T02:07:25.961Z,0
2016-09-28T02:08:26.467Z,0
2016-09-28T02:09:26.976Z,0
2016-09-28T02:10:27.490Z,0
2016-09-28T02:11:28.148Z,0
2016-09-28T02:12:28.662Z,0
2016-09-28T02:13:29.027Z,0
2016-09-28T02:14:29.695Z,0
2016-09-28T02:15:30.057Z,0
2016-09-28T02:16:30.568Z,0
2016-09-28T02:17:32.138Z,0
2016-09-28T02:18:31.597Z,0
2016-09-28T02:19:32.108Z,0
2016-09-28T02:20:32.622Z,0
2016-09-28T02:21:33.286Z,0
2016-09-28T02:22:33.644Z,0
2016-09-28T02:23:34.153Z,0
2016-09-28T02:24:34.666Z,0
2016-09-28T02:25:35.171Z,0
2016-09-28T02:26:35.835Z,0
2016-09-28T02:27:36.190Z,0
2016-09-28T02:28:36.702Z,0
2016-09-28T02:29:37.214Z,0
2016-09-28T02:30:37.730Z,0
2016-09-28T02:31:38.239Z,0
2016-09-28T02:32:38.750Z,0
2016-09-28T02:33:39.261Z,0
2016-09-28T02:34:39.776Z,0
2016-09-28T02:35:41.191Z,0
2016-09-28T02:36:40.803Z,0
2016-09-28T02:37:41.309Z,0
2016-09-28T02:38:41.822Z,0
2016-09-28T02:39:42.334Z,0
2016-09-28T02:40:42.841Z,0
2016-09-28T02:41:43.370Z,0
2016-09-28T02:42:43.861Z,0
2016-09-28T02:43:44.366Z,0
2016-09-28T02:44:44.882Z,0
2016-09-28T02:45:45.387Z,0
2016-09-28T02:46:45.900Z,0
2016-09-28T02:47:46.424Z,0
2016-09-28T02:48:46.920Z,0
2016-09-28T02:49:47.436Z,0
2016-09-28T02:50:47.948Z,0
2016-09-28T02:51:48.458Z,0
2016-09-28T02:52:48.977Z,0
2016-09-28T02:53:49.640Z,0
2016-09-28T02:54:50.154Z,0
2016-09-28T02:55:50.518Z,0
2016-09-28T02:56:51.034Z,0
2016-09-28T02:57:51.546Z,0
2016-09-28T02:58:52.064Z,0
2016-09-28T02:59:52.724Z,0
2016-09-28T03:00:53.084Z,0
2016-09-28T03:01:53.596Z,0
2016-09-28T03:02:54.116Z,0
2016-09-28T03:03:54.618Z,0
2016-09-28T03:04:55.131Z,0
2016-09-28T03:05:56.539Z,0
2016-09-28T03:06:56.152Z,0
2016-09-28T03:07:56.663Z,0
2016-09-28T03:08:57.353Z,0
2016-09-28T03:09:57.685Z,0
2016-09-28T03:10:58.200Z,0
2016-09-28T03:11:58.711Z,0
2016-09-28T03:12:59.381Z,0
2016-09-28T03:13:59.739Z,0
2016-09-28T03:15:00.254Z,0
2016-09-28T03:16:00.764Z,0
2016-09-28T03:17:01.279Z,0
2016-09-28T03:18:01.937Z,0
2016-09-28T03:19:02.604Z,0
2016-09-28T03:20:02.860Z,0
2016-09-28T03:21:03.330Z,0
2016-09-28T03:22:03.843Z,0
2016-09-28T03:23:05.404Z,0
2016-09-28T03:24:04.887Z,0
2016-09-28T03:25:05.412Z,0
2016-09-28T03:26:35.923Z,0
2016-09-28T03:28:07.069Z,0
2016-09-28T03:29:07.584Z,0
2016-09-28T03:30:07.953Z,0
2016-09-28T03:31:08.468Z,0
2016-09-28T03:32:08.979Z,0
2016-09-28T03:33:09.489Z,0
2016-09-28T03:34:10.002Z,0
2016-09-28T03:35:10.657Z,0
2016-09-28T03:36:11.174Z,0
2016-09-28T03:37:11.847Z,0
2016-09-28T03:38:12.198Z,0
2016-09-28T03:39:12.583Z,0
2016-09-28T03:40:13.066Z,0
2016-09-28T03:41:13.579Z,0
2016-09-28T03:42:14.092Z,0
2016-09-28T03:43:14.753Z,0
2016-09-28T03:44:15.111Z,0
2016-09-28T03:45:15.766Z,0
2016-09-28T03:46:16.284Z,0
2016-09-28T03:47:16.643Z,0
2016-09-28T03:48:17.153Z,0
2016-09-28T03:49:17.669Z,0
2016-09-28T03:50:18.191Z,0
2016-09-28T03:51:18.695Z,0
2016-09-28T03:52:19.201Z,0
2016-09-28T03:53:21.514Z,0
2016-09-28T03:54:20.227Z,0
2016-09-28T03:55:20.738Z,0
2016-09-28T03:56:21.398Z,0
2016-09-28T03:57:21.759Z,0
2016-09-28T03:58:22.272Z,0
2016-09-28T03:59:22.783Z,0
2016-09-28T04:00:23.292Z,0
2016-09-28T04:01:23.817Z,0
2016-09-28T04:02:24.327Z,0
2016-09-28T04:03:24.978Z,0
2016-09-28T04:04:25.343Z,0
2016-09-28T04:05:25.868Z,0
2016-09-28T04:06:26.377Z,0
2016-09-28T04:07:27.043Z,0
2016-09-28T04:08:27.410Z,0
2016-09-28T04:09:27.924Z,0
2016-09-28T04:10:28.583Z,0
2016-09-28T04:11:30.450Z,0
2016-09-28T04:12:29.453Z,0
2016-09-28T04:13:29.963Z,0
2016-09-28T04:14:30.481Z,0
2016-09-28T04:15:30.993Z,0
2016-09-28T04:16:31.510Z,0
2016-09-28T04:17:32.024Z,0
2016-09-28T04:18:32.530Z,0
2016-09-28T04:19:33.042Z,0
2016-09-28T04:20:33.705Z,0
2016-09-28T04:21:34.064Z,0
2016-09-28T04:22:34.574Z,0
2016-09-28T04:23:35.082Z,0
2016-09-28T04:24:35.608Z,0
2016-09-28T04:25:36.108Z,0
2016-09-28T04:26:36.923Z,0
2016-09-28T04:27:37.136Z,0
2016-09-28T04:28:37.648Z,0
2016-09-28T04:29:38.170Z,0
2016-09-28T04:30:38.827Z,0
2016-09-28T04:31:39.180Z,0
2016-09-28T04:32:39.690Z,0
2016-09-28T04:33:40.207Z,0
2016-09-28T04:34:40.717Z,0
2016-09-28T04:35:41.384Z,0
2016-09-28T04:36:41.750Z,0
2016-09-28T04:37:42.269Z,0
2016-09-28T04:38:42.776Z,0
2016-09-28T04:39:43.584Z,0
2016-09-28T04:40:43.798Z,0
2016-09-28T04:41:45.368Z,0
2016-09-28T04:42:44.822Z,0
2016-09-28T04:43:45.350Z,0
2016-09-28T04:44:46.015Z,0
2016-09-28T04:45:46.519Z,0
2016-09-28T04:46:46.881Z,0
2016-09-28T04:47:47.395Z,0
2016-09-28T04:48:48.047Z,0
2016-09-28T04:49:48.411Z,0
2016-09-28T04:50:48.918Z,0
2016-09-28T04:51:49.457Z,0
2016-09-28T04:52:49.939Z,0
2016-09-28T04:53:50.452Z,0
2016-09-28T04:54:51.109Z,0
2016-09-28T04:55:51.467Z,0
2016-09-28T04:56:53.483Z,0
2016-09-28T04:57:52.642Z,0
2016-09-28T04:58:53.001Z,0
2016-09-28T04:59:53.513Z,0
2016-09-28T05:00:54.175Z,0
2016-09-28T05:01:54.538Z,0
2016-09-28T05:02:55.056Z,0
2016-09-28T05:03:55.556Z,0
2016-09-28T05:04:56.226Z,0
2016-09-28T05:05:56.585Z,0
2016-09-28T05:06:57.115Z,0
2016-09-28T05:07:57.604Z,0
2016-09-28T05:08:58.119Z,0
2016-09-28T05:09:58.627Z,0
2016-09-28T05:10:59.138Z,0
2016-09-28T05:11:59.648Z,0
2016-09-28T05:13:00.163Z,0
2016-09-28T05:14:00.816Z,0
2016-09-28T05:15:01.471Z,0
2016-09-28T05:16:01.690Z,0
2016-09-28T05:17:02.208Z,0
2016-09-28T05:18:02.734Z,0
2016-09-28T05:19:03.435Z,0
2016-09-28T05:20:03.802Z,0
2016-09-28T05:21:04.297Z,0
2016-09-28T05:22:04.831Z,0
2016-09-28T05:23:05.478Z,0
2016-09-28T05:24:05.843Z,0
2016-09-28T05:25:06.509Z,0
2016-09-28T05:26:06.871Z,0
2016-09-28T05:27:07.536Z,0
2016-09-28T05:28:07.896Z,0
2016-09-28T05:29:08.557Z,0
2016-09-28T05:30:08.918Z,0
2016-09-28T05:31:09.424Z,0
2016-09-28T05:32:09.938Z,0
2016-09-28T05:33:10.452Z,0
2016-09-28T05:34:10.965Z,0
2016-09-28T05:35:11.472Z,0
2016-09-28T05:36:12.137Z,0
2016-09-28T05:37:12.500Z,0
2016-09-28T05:38:13.018Z,0
2016-09-28T05:39:13.526Z,0
2016-09-28T05:40:14.035Z,0
2016-09-28T05:41:14.549Z,0
2016-09-28T05:42:15.068Z,0
2016-09-28T05:43:15.721Z,0
2016-09-28T05:44:16.086Z,0
2016-09-28T05:45:16.595Z,0
2016-09-28T05:46:17.110Z,0
2016-09-28T05:47:17.623Z,0
2016-09-28T05:48:18.135Z,0
2016-09-28T05:49:18.798Z,0
2016-09-28T05:50:19.156Z,0
2016-09-28T05:51:19.666Z,0
2016-09-28T05:52:20.326Z,0
2016-09-28T05:53:20.690Z,0
2016-09-28T05:54:21.202Z,0
2016-09-28T05:55:21.735Z,0
2016-09-28T05:56:22.378Z,0
2016-09-28T05:57:22.897Z,0
2016-09-28T05:58:23.263Z,0
2016-09-28T05:59:23.775Z,0
2016-09-28T06:00:24.289Z,0
2016-09-28T06:01:24.803Z,0
2016-09-28T06:02:25.616Z,0
2016-09-28T06:03:25.981Z,0
2016-09-28T06:04:26.335Z,15
2016-09-28T06:05:26.847Z,15
2016-09-28T06:06:27.362Z,15
2016-09-28T06:07:28.018Z,14
2016-09-28T06:08:28.382Z,12
2016-09-28T06:09:28.887Z,11
2016-09-28T06:10:29.398Z,7
2016-09-28T06:11:30.212Z,6
2016-09-28T06:12:30.421Z,5
2016-09-28T06:13:30.931Z,5
2016-09-28T06:14:32.201Z,5
2016-09-28T06:15:31.963Z,6
2016-09-28T06:16:32.463Z,7
2016-09-28T06:17:33.003Z,9
2016-09-28T06:18:33.790Z,10
2016-09-28T06:19:34.011Z,10
2016-09-28T06:20:34.522Z,13
2016-09-28T06:21:35.030Z,16
2016-09-28T06:22:35.693Z,21
2016-09-28T06:23:36.208Z,31
2016-09-28T06:24:36.566Z,40
2016-09-28T06:25:37.076Z,41
2016-09-28T06:26:37.751Z,40
2016-09-28T06:27:38.421Z,44
2016-09-28T06:28:38.759Z,44
2016-09-28T06:29:39.135Z,46
2016-09-28T06:30:39.638Z,47
2016-09-28T06:31:40.147Z,46
2016-09-28T06:32:42.606Z,52
2016-09-28T06:33:41.166Z,55
2016-09-28T06:34:41.674Z,54
2016-09-28T06:35:42.197Z,41
2016-09-28T06:36:42.712Z,40
2016-09-28T06:37:43.376Z,38
2016-09-28T06:38:43.745Z,56
2016-09-28T06:39:44.261Z,73
2016-09-28T06:40:44.773Z,74
2016-09-28T06:41:45.282Z,77
2016-09-28T06:42:45.796Z,83
2016-09-28T06:43:46.305Z,83
2016-09-28T06:44:46.845Z,77
2016-09-28T06:45:47.328Z,77
2016-09-28T06:46:47.992Z,80
2016-09-28T06:47:48.356Z,83
2016-09-28T06:48:48.871Z,95
2016-09-28T06:49:49.384Z,98
2016-09-28T06:50:50.044Z,98
2016-09-28T06:51:50.399Z,101
2016-09-28T06:52:50.915Z,96
2016-09-28T06:53:51.425Z,86
2016-09-28T06:54:51.935Z,76
2016-09-28T06:55:52.598Z,70
2016-09-28T06:56:52.960Z,87
2016-09-28T06:57:53.475Z,95
2016-09-28T06:58:53.989Z,88
2016-09-28T06:59:54.650Z,78
2016-09-28T07:00:55.010Z,56
2016-09-28T07:01:55.521Z,54
2016-09-28T07:02:57.242Z,67
2016-09-28T07:03:56.702Z,56
2016-09-28T07:04:57.362Z,60
2016-09-28T07:05:57.732Z,82
2016-09-28T07:06:58.088Z,80
2016-09-28T07:07:58.599Z,91
2016-09-28T07:08:59.109Z,96
2016-09-28T07:09:59.624Z,95
2016-09-28T07:11:00.289Z,83
2016-09-28T07:12:00.655Z,93
2016-09-28T07:13:01.171Z,95
2016-09-28T07:14:01.689Z,67
2016-09-28T07:15:02.375Z,78
2016-09-28T07:16:02.722Z,94
2016-09-28T07:17:03.234Z,91
2016-09-28T07:18:03.747Z,91
2016-09-28T07:19:04.263Z,90
2016-09-28T07:20:04.927Z,90
2016-09-28T07:21:05.287Z,90
2016-09-28T07:22:05.802Z,91
2016-09-28T07:23:06.458Z,91
2016-09-28T07:24:06.857Z,91
2016-09-28T07:25:07.483Z,96
2016-09-28T07:26:07.837Z,98
2016-09-28T07:27:08.499Z,107
2016-09-28T07:28:08.857Z,114
2016-09-28T07:29:09.372Z,123
2016-09-28T07:30:10.043Z,127
2016-09-28T07:31:10.402Z,152
2016-09-28T07:32:10.907Z,167
2016-09-28T07:33:11.426Z,181
2016-09-28T07:34:12.078Z,183
2016-09-28T07:35:12.592Z,166
2016-09-28T07:36:12.957Z,158
2016-09-28T07:37:13.471Z,155
2016-09-28T07:38:14.003Z,158
2016-09-28T07:39:14.491Z,153
2016-09-28T07:40:15.004Z,146
2016-09-28T07:41:15.517Z,143
2016-09-28T07:42:16.184Z,143
2016-09-28T07:43:16.687Z,145
2016-09-28T07:44:17.073Z,148
2016-09-28T07:45:17.860Z,147
2016-09-28T07:46:18.068Z,142
2016-09-28T07:47:18.588Z,134
2016-09-28T07:48:19.096Z,128
2016-09-28T07:49:19.759Z,116
2016-09-28T07:50:20.125Z,119
2016-09-28T07:51:20.790Z,105
2016-09-28T07:52:21.158Z,111
2016-09-28T07:53:21.679Z,126
2016-09-28T07:54:22.181Z,122
2016-09-28T07:55:22.698Z,119
2016-09-28T07:56:23.211Z,111
2016-09-28T07:57:23.721Z,111
2016-09-28T07:58:24.236Z,110
2016-09-28T07:59:24.749Z,110
2016-09-28T08:00:25.264Z,119
2016-09-28T08:01:25.777Z,115
2016-09-28T08:02:26.290Z,121
2016-09-28T08:03:26.803Z,113
2016-09-28T08:04:27.468Z,128
2016-09-28T08:05:27.986Z,143
2016-09-28T08:06:28.339Z,163
2016-09-28T08:07:28.854Z,178
2016-09-28T08:08:31.165Z,184
2016-09-28T08:09:30.034Z,203
2016-09-28T08:10:30.580Z,211
2016-09-28T08:11:31.051Z,186
2016-09-28T08:12:31.411Z,141
2016-09-28T08:13:31.927Z,116
2016-09-28T08:14:32.433Z,98
2016-09-28T08:15:32.942Z,113
2016-09-28T08:16:33.456Z,109
2016-09-28T08:17:33.967Z,111
2016-09-28T08:18:34.634Z,162
2016-09-28T08:19:34.994Z,179
2016-09-28T08:20:35.655Z,204
2016-09-28T08:21:36.167Z,212
2016-09-28T08:22:36.528Z,217
2016-09-28T08:23:37.055Z,238
2016-09-28T08:24:37.710Z,284
2016-09-28T08:25:38.227Z,286
2016-09-28T08:26:38.746Z,308
2016-09-28T08:27:39.115Z,266
2016-09-28T08:28:39.639Z,228
2016-09-28T08:29:40.296Z,203
2016-09-28T08:30:40.962Z,169
2016-09-28T08:31:41.180Z,183
2016-09-28T08:32:41.695Z,205
2016-09-28T08:33:42.204Z,317
2016-09-28T08:34:42.721Z,414
2016-09-28T08:35:43.232Z,688
2016-09-28T08:36:43.744Z,395
2016-09-28T08:37:44.408Z,339
2016-09-28T08:38:44.920Z,250
2016-09-28T08:39:45.430Z,239
2016-09-28T08:40:45.795Z,237
2016-09-28T08:41:46.454Z,204
2016-09-28T08:42:46.817Z,201
2016-09-28T08:43:47.489Z,197
2016-09-28T08:44:47.844Z,210
2016-09-28T08:45:48.355Z,201
2016-09-28T08:46:48.866Z,173
2016-09-28T08:47:49.380Z,230
2016-09-28T08:48:49.892Z,241
2016-09-28T08:49:50.402Z,234
2016-09-28T08:50:50.921Z,303
2016-09-28T08:51:51.427Z,397
2016-09-28T08:52:51.942Z,317
2016-09-28T08:53:52.606Z,196
2016-09-28T08:54:52.970Z,167
2016-09-28T08:55:53.478Z,134
2016-09-28T08:56:53.987Z,119
2016-09-28T08:57:54.499Z,109
2016-09-28T08:58:55.011Z,105
2016-09-28T08:59:55.673Z,121
2016-09-28T09:00:56.032Z,134
2016-09-28T09:01:56.546Z,149
2016-09-28T09:02:57.059Z,146
2016-09-28T09:03:57.576Z,163
2016-09-28T09:04:58.092Z,173
2016-09-28T09:05:58.609Z,168
2016-09-28T09:06:59.131Z,161
2016-09-28T09:07:59.640Z,144
2016-09-28T09:09:00.153Z,142
2016-09-28T09:10:00.819Z,141
2016-09-28T09:11:01.177Z,152
2016-09-28T09:12:01.687Z,161
2016-09-28T09:13:02.205Z,145
2016-09-28T09:14:02.715Z,140
2016-09-28T09:15:03.369Z,170
2016-09-28T09:16:03.759Z,204
2016-09-28T09:17:04.243Z,190
2016-09-28T09:18:04.909Z,168
2016-09-28T09:19:57.078Z,167
2016-09-28T09:21:06.300Z,195
2016-09-28T09:22:06.817Z,222
2016-09-28T09:23:07.329Z,205
2016-09-28T09:24:08.001Z,191
2016-09-28T09:25:08.368Z,217
2016-09-28T09:26:08.867Z,230
2016-09-28T09:27:09.547Z,222
2016-09-28T09:28:10.038Z,200
2016-09-28T09:29:10.426Z,223
2016-09-28T09:30:10.906Z,262
2016-09-28T09:31:11.427Z,254
2016-09-28T09:32:11.935Z,242
2016-09-28T09:33:12.454Z,244
2016-09-28T09:34:12.959Z,253
2016-09-28T09:35:13.466Z,257
2016-09-28T09:36:14.124Z,228
2016-09-28T09:37:14.488Z,226
2016-09-28T09:38:15.017Z,220
2016-09-28T09:39:15.511Z,215
2016-09-28T09:40:16.027Z,210
2016-09-28T09:41:16.535Z,190
2016-09-28T09:42:17.201Z,227
2016-09-28T09:43:17.715Z,264
2016-09-28T09:44:18.986Z,271
2016-09-28T09:45:18.609Z,245
2016-09-28T09:46:19.271Z,231
2016-09-28T09:47:19.636Z,220
2016-09-28T09:48:20.752Z,256
2016-09-28T09:49:20.661Z,218
2016-09-28T09:50:21.179Z,193
2016-09-28T09:51:21.693Z,199
2016-09-28T09:52:22.202Z,170
2016-09-28T09:53:22.719Z,173
2016-09-28T09:54:23.375Z,194
2016-09-28T09:55:23.734Z,230
2016-09-28T09:56:24.249Z,216
2016-09-28T09:57:24.752Z,254
2016-09-28T09:58:25.279Z,254
2016-09-28T09:59:25.928Z,236
2016-09-28T10:00:26.289Z,217
2016-09-28T10:01:26.803Z,196
2016-09-28T10:02:27.319Z,212
2016-09-28T10:03:27.985Z,208
2016-09-28T10:04:28.343Z,197
2016-09-28T10:05:28.856Z,222
2016-09-28T10:06:29.372Z,208
2016-09-28T10:07:30.034Z,193
2016-09-28T10:08:30.398Z,192
2016-09-28T10:09:30.909Z,190
2016-09-28T10:10:31.423Z,197
2016-09-28T10:11:31.934Z,213
2016-09-28T10:12:32.447Z,207
2016-09-28T10:13:32.958Z,177
2016-09-28T10:14:34.370Z,162
2016-09-28T10:15:34.001Z,156
2016-09-28T10:16:34.651Z,142
2016-09-28T10:17:35.007Z,162
2016-09-28T10:18:35.528Z,161
2016-09-28T10:19:36.188Z,194
2016-09-28T10:20:36.553Z,191
2016-09-28T10:21:37.073Z,182
2016-09-28T10:22:37.587Z,183
2016-09-28T10:23:38.123Z,179
2016-09-28T10:24:38.762Z,171
2016-09-28T10:25:39.126Z,187
2016-09-28T10:26:39.640Z,186
2016-09-28T10:27:40.153Z,174
2016-09-28T10:28:40.669Z,169
2016-09-28T10:29:41.178Z,167
2016-09-28T10:30:41.689Z,187
2016-09-28T10:31:42.199Z,196
2016-09-28T10:32:43.766Z,153
2016-09-28T10:33:43.374Z,148
2016-09-28T10:34:43.730Z,160
2016-09-28T10:35:44.240Z,167
2016-09-28T10:36:44.755Z,160
2016-09-28T10:37:45.270Z,160
2016-09-28T10:38:45.925Z,161
2016-09-28T10:39:46.290Z,161
2016-09-28T10:40:46.823Z,167
2016-09-28T10:41:47.304Z,155
2016-09-28T10:42:47.820Z,152
2016-09-28T10:43:48.328Z,146
2016-09-28T10:44:48.843Z,145
2016-09-28T10:45:49.355Z,156
2016-09-28T10:46:49.866Z,155
2016-09-28T10:47:50.369Z,166
2016-09-28T10:48:50.884Z,197
2016-09-28T10:49:51.391Z,210
2016-09-28T10:50:51.907Z,204
2016-09-28T10:51:52.726Z,195
2016-09-28T10:52:52.930Z,203
2016-09-28T10:53:53.441Z,224
2016-09-28T10:54:53.951Z,245
2016-09-28T10:55:54.467Z,248
2016-09-28T10:56:54.980Z,228
2016-09-28T10:57:55.650Z,201
2016-09-28T10:58:56.017Z,202
2016-09-28T10:59:56.528Z,223
2016-09-28T11:00:57.042Z,221
2016-09-28T11:01:57.552Z,216
2016-09-28T11:02:58.060Z,191
2016-09-28T11:03:58.573Z,169
2016-09-28T11:04:59.087Z,170
2016-09-28T11:05:59.598Z,155
2016-09-28T11:07:00.261Z,152
2016-09-28T11:08:00.778Z,159
2016-09-28T11:09:01.132Z,162
2016-09-28T11:10:01.666Z,160
2016-09-28T11:11:02.157Z,145
2016-09-28T11:12:02.819Z,137
2016-09-28T11:13:03.206Z,142
2016-09-28T11:14:03.699Z,146
2016-09-28T11:15:04.210Z,138
2016-09-28T11:16:04.715Z,146
2016-09-28T11:17:05.378Z,148
2016-09-28T11:18:05.759Z,130
2016-09-28T11:19:06.248Z,127
2016-09-28T11:20:08.279Z,139
2016-09-28T11:21:07.281Z,148
2016-09-28T11:22:07.784Z,153
2016-09-28T11:23:08.443Z,155
2016-09-28T11:24:08.960Z,141
2016-09-28T11:25:09.318Z,150
2016-09-28T11:26:09.831Z,142
2016-09-28T11:27:10.339Z,145
2016-09-28T11:28:10.850Z,161
2016-09-28T11:29:11.370Z,171
2016-09-28T11:30:12.029Z,176
2016-09-28T11:31:12.390Z,171
2016-09-28T11:32:12.903Z,173
2016-09-28T11:33:13.417Z,169
2016-09-28T11:34:13.936Z,173
2016-09-28T11:35:14.456Z,175
2016-09-28T11:36:15.124Z,172
2016-09-28T11:37:15.494Z,173
2016-09-28T11:38:16.005Z,192
2016-09-28T11:39:16.518Z,188
2016-09-28T11:40:17.030Z,172
2016-09-28T11:41:17.542Z,184
2016-09-28T11:42:18.060Z,229
2016-09-28T11:43:18.568Z,261
2016-09-28T11:44:19.223Z,273
2016-09-28T11:45:19.901Z,269
2016-09-28T11:46:20.246Z,291
2016-09-28T11:47:20.607Z,281
2016-09-28T11:48:21.128Z,311
2016-09-28T11:49:21.638Z,318
2016-09-28T11:50:23.497Z,355
2016-09-28T11:51:22.841Z,337
2016-09-28T11:52:23.327Z,339
2016-09-28T11:53:23.691Z,330
2016-09-28T11:54:24.363Z,361
2016-09-28T11:55:24.720Z,315
2016-09-28T11:56:25.231Z,290
2016-09-28T11:57:25.763Z,328
2016-09-28T11:58:26.261Z,351
2016-09-28T11:59:26.774Z,332
2016-09-28T12:00:27.285Z,367
2016-09-28T12:01:27.960Z,368
2016-09-28T12:02:28.310Z,347
2016-09-28T12:03:28.822Z,379
2016-09-28T12:04:29.334Z,382
2016-09-28T12:05:29.845Z,359
2016-09-28T12:06:30.360Z,379
2016-09-28T12:07:31.015Z,430
2016-09-28T12:08:31.392Z,542
2016-09-28T12:09:31.895Z,429
2016-09-28T12:10:32.406Z,390
2016-09-28T12:11:33.069Z,364
2016-09-28T12:12:33.436Z,483
2016-09-28T12:13:34.104Z,578
2016-09-28T12:14:34.618Z,528
2016-09-28T12:15:34.981Z,585
2016-09-28T12:16:35.491Z,689
2016-09-28T12:17:36.158Z,638
2016-09-28T12:18:36.540Z,578
2016-09-28T12:19:37.178Z,525
2016-09-28T12:20:37.539Z,529
2016-09-28T12:21:38.050Z,575
2016-09-28T12:22:38.708Z,677
2016-09-28T12:23:39.071Z,688
2016-09-28T12:24:39.598Z,712
2016-09-28T12:25:40.101Z,720
2016-09-28T12:26:40.752Z,497
2016-09-28T12:27:41.113Z,416
2016-09-28T12:28:41.774Z,382
2016-09-28T12:29:42.144Z,366
2016-09-28T12:30:42.793Z,329
2016-09-28T12:31:43.153Z,294
2016-09-28T12:32:43.667Z,283
2016-09-28T12:33:44.175Z,259
2016-09-28T12:34:44.688Z,243
2016-09-28T12:35:45.359Z,230
2016-09-28T12:36:45.713Z,235
2016-09-28T12:37:46.225Z,246
2016-09-28T12:38:46.753Z,253
2016-09-28T12:39:47.404Z,271
2016-09-28T12:40:47.765Z,279
2016-09-28T12:41:48.277Z,291
2016-09-28T12:42:48.789Z,334
2016-09-28T12:43:49.452Z,418
2016-09-28T12:44:49.812Z,402
2016-09-28T12:45:50.327Z,376
2016-09-28T12:46:50.835Z,376
2016-09-28T12:47:51.346Z,413
2016-09-28T12:48:51.861Z,416
2016-09-28T12:49:52.376Z,391
2016-09-28T12:50:52.893Z,403
2016-09-28T12:51:53.411Z,412
2016-09-28T12:52:53.925Z,400
2016-09-28T12:53:54.442Z,366
2016-09-28T12:54:55.124Z,386
2016-09-28T12:55:55.464Z,395
2016-09-28T12:56:55.975Z,387
2016-09-28T12:57:56.494Z,394
2016-09-28T12:58:56.995Z,382
2016-09-28T12:59:57.513Z,365
2016-09-28T13:00:58.323Z,360
2016-09-28T13:01:58.681Z,344
2016-09-28T13:02:59.042Z,338
2016-09-28T13:03:59.552Z,348
2016-09-28T13:05:00.063Z,373
2016-09-28T13:06:00.577Z,346
2016-09-28T13:07:01.092Z,336
2016-09-28T13:08:01.619Z,329
2016-09-28T13:09:02.119Z,334
2016-09-28T13:10:02.778Z,342
2016-09-28T13:11:03.145Z,328
2016-09-28T13:12:03.655Z,354
2016-09-28T13:13:04.168Z,370
2016-09-28T13:14:04.824Z,442
2016-09-28T13:15:05.192Z,363
2016-09-28T13:16:05.702Z,349
2016-09-28T13:17:06.229Z,335
2016-09-28T13:18:06.732Z,326
2016-09-28T13:19:07.379Z,341
2016-09-28T13:20:07.740Z,355
2016-09-28T13:21:08.251Z,345
2016-09-28T13:22:08.776Z,354
2016-09-28T13:23:09.277Z,372
2016-09-28T13:24:09.938Z,376
2016-09-28T13:25:10.321Z,356
2016-09-28T13:26:12.168Z,364
2016-09-28T13:27:11.481Z,360
2016-09-28T13:28:11.848Z,347
2016-09-28T13:29:12.538Z,371
2016-09-28T13:30:13.026Z,374
2016-09-28T13:31:13.390Z,348
2016-09-28T13:32:13.900Z,331
2016-09-28T13:33:14.421Z,332
2016-09-28T13:34:14.927Z,360
2016-09-28T13:35:15.467Z,376
2016-09-28T13:36:15.985Z,361
2016-09-28T13:37:16.499Z,389
2016-09-28T13:38:16.988Z,421
2016-09-28T13:39:17.499Z,438
2016-09-28T13:40:18.011Z,441
2016-09-28T13:41:18.523Z,484
2016-09-28T13:42:19.040Z,390
2016-09-28T13:43:19.550Z,360
2016-09-28T13:44:21.415Z,337
2016-09-28T13:45:20.568Z,328
2016-09-28T13:46:21.087Z,299
2016-09-28T13:47:21.596Z,278
2016-09-28T13:48:22.141Z,263
2016-09-28T13:49:22.640Z,249
2016-09-28T13:50:23.136Z,234
2016-09-28T13:51:23.645Z,225
2016-09-28T13:52:24.161Z,219
2016-09-28T13:53:24.847Z,214
2016-09-28T13:54:25.184Z,210
2016-09-28T13:55:25.694Z,209
2016-09-28T13:56:26.221Z,210
2016-09-28T13:57:26.869Z,208
2016-09-28T13:58:27.385Z,194
2016-09-28T13:59:27.747Z,178
2016-09-28T14:00:28.259Z,170
2016-09-28T14:01:28.927Z,169
2016-09-28T14:02:29.289Z,177
2016-09-28T14:03:29.807Z,187
2016-09-28T14:04:30.470Z,200
2016-09-28T14:05:30.843Z,213
2016-09-28T14:06:31.504Z,222
2016-09-28T14:07:32.022Z,228
2016-09-28T14:08:32.556Z,222
2016-09-28T14:09:32.895Z,200
2016-09-28T14:10:33.406Z,176
2016-09-28T14:11:33.919Z,163
2016-09-28T14:12:34.436Z,156
2016-09-28T14:13:34.947Z,153
2016-09-28T14:14:36.508Z,153
2016-09-28T14:15:35.977Z,153
2016-09-28T14:16:36.490Z,153
2016-09-28T14:17:37.005Z,158
2016-09-28T14:18:37.665Z,172
2016-09-28T14:19:38.174Z,198
2016-09-28T14:20:38.538Z,216
2016-09-28T14:21:39.049Z,226
2016-09-28T14:22:39.566Z,229